createdAt,value
2023-01-13T00:03:12.913Z,-72.00
2023-01-13T00:08:20.089Z,-72.00
2023-01-13T00:13:27.331Z,-72.00
2023-01-13T00:18:34.612Z,-72.00
2023-01-13T00:23:41.814Z,-72.00
2023-01-13T00:28:49.027Z,-72.00
2023-01-13T00:33:56.316Z,-144.00
2023-01-13T00:39:03.530Z,-72.00
2023-01-13T00:44:10.739Z,-72.00
2023-01-13T00:49:17.960Z,-108.00
2023-01-13T00:54:25.160Z,-72.00
2023-01-13T00:59:32.486Z,-72.00
2023-01-13T01:04:39.857Z,-72.00
2023-01-13T01:09:47.063Z,-72.00
2023-01-13T01:14:54.270Z,-72.00
2023-01-13T01:20:01.516Z,-72.00
2023-01-13T01:25:08.773Z,-72.00
2023-01-13T01:30:16.039Z,-72.00
2023-01-13T01:35:23.306Z,-72.00
2023-01-13T01:40:30.496Z,-144.00
2023-01-13T01:45:37.721Z,-72.00
2023-01-13T01:50:45.028Z,-72.00
2023-01-13T01:55:52.220Z,-72.00
2023-01-13T02:00:59.526Z,-72.00
2023-01-13T02:06:06.647Z,-72.00
2023-01-13T02:11:13.914Z,-72.00
2023-01-13T02:16:21.186Z,-72.00
2023-01-13T02:21:28.357Z,-72.00
2023-01-13T02:26:35.539Z,-72.00
2023-01-13T02:31:42.919Z,-72.00
2023-01-13T02:36:50.077Z,-72.00
2023-01-13T02:41:57.285Z,-72.00
2023-01-13T02:47:04.499Z,-72.00
2023-01-13T02:52:11.811Z,-72.00
2023-01-13T02:57:18.975Z,-72.00
2023-01-13T03:02:26.319Z,-72.00
2023-01-13T03:07:33.361Z,-108.00
2023-01-13T03:12:40.501Z,-72.00
2023-01-13T03:17:47.755Z,-72.00
2023-01-13T03:22:54.944Z,-72.00
2023-01-13T03:28:02.159Z,-72.00
2023-01-13T03:33:09.367Z,-72.00
2023-01-13T03:38:16.633Z,-72.00
2023-01-13T03:43:23.878Z,-36.00
2023-01-13T03:48:31.079Z,-72.00
2023-01-13T03:53:38.425Z,-72.00
2023-01-13T03:58:45.696Z,-72.00
2023-01-13T04:03:52.896Z,-72.00
2023-01-13T04:09:00.030Z,-108.00
2023-01-13T04:14:07.199Z,-72.00
2023-01-13T04:19:14.391Z,-72.00
2023-01-13T04:24:21.618Z,-72.00
2023-01-13T04:29:28.814Z,-72.00
2023-01-13T04:34:35.977Z,-72.00
2023-01-13T04:39:43.233Z,-72.00
2023-01-13T04:44:50.356Z,-72.00
2023-01-13T04:49:57.601Z,-72.00
2023-01-13T04:55:04.858Z,-72.00
2023-01-13T05:00:12.018Z,-72.00
2023-01-13T05:05:19.280Z,-72.00
2023-01-13T05:10:26.429Z,-72.00
2023-01-13T05:15:33.748Z,-72.00
2023-01-13T05:20:40.811Z,-36.00
2023-01-13T05:25:48.101Z,-72.00
2023-01-13T05:30:55.303Z,-72.00
2023-01-13T05:36:02.488Z,-72.00
2023-01-13T05:41:09.725Z,-72.00
2023-01-13T05:46:17.011Z,-72.00
2023-01-13T05:51:24.284Z,-72.00
2023-01-13T05:56:31.518Z,-72.00
2023-01-13T06:01:38.711Z,-72.00
2023-01-13T06:06:45.929Z,-72.00
2023-01-13T06:11:53.329Z,-72.00
2023-01-13T06:17:00.662Z,-72.00
2023-01-13T06:22:07.838Z,-72.00
2023-01-13T06:27:15.033Z,-72.00
2023-01-13T06:32:22.244Z,-72.00
2023-01-13T06:37:29.466Z,-72.00
2023-01-13T06:42:36.722Z,-72.00
2023-01-13T06:47:43.865Z,-72.00
2023-01-13T06:52:51.063Z,-72.00
2023-01-13T06:57:58.301Z,-72.00
2023-01-13T07:03:07.032Z,-72.00
2023-01-13T07:08:12.589Z,-72.00
2023-01-13T07:13:20.016Z,-36.00
2023-01-13T07:18:27.117Z,-72.00
2023-01-13T07:23:34.286Z,-72.00
2023-01-13T07:28:41.546Z,-72.00
2023-01-13T07:33:48.706Z,-72.00
2023-01-13T07:38:55.850Z,-72.00
2023-01-13T07:44:03.061Z,4212.00
2023-01-13T07:49:10.202Z,5688.00
2023-01-13T07:54:19.318Z,5220.00
2023-01-13T07:59:24.631Z,5580.00
2023-01-13T08:04:31.816Z,6588.00
2023-01-13T08:09:39.035Z,6516.00
2023-01-13T08:14:46.274Z,8424.00
2023-01-13T08:19:53.482Z,12204.00
2023-01-13T08:25:00.641Z,13392.00
2023-01-13T08:30:07.884Z,13356.00
2023-01-13T08:35:15.082Z,12960.00
2023-01-13T08:40:22.376Z,13140.00
2023-01-13T08:45:29.628Z,12096.00
2023-01-13T08:50:36.834Z,13464.00
2023-01-13T08:55:44.105Z,13032.00
2023-01-13T09:00:51.314Z,11304.00
2023-01-13T09:05:58.515Z,11736.00
2023-01-13T09:11:05.992Z,13248.00
2023-01-13T09:16:13.333Z,14724.00
2023-01-13T09:21:20.421Z,10980.00
2023-01-13T09:26:27.619Z,12780.00
2023-01-13T09:31:34.935Z,9216.00
2023-01-13T09:36:42.012Z,15804.00
2023-01-13T09:41:49.171Z,14040.00
2023-01-13T09:46:56.374Z,14940.00
2023-01-13T09:52:03.587Z,13212.00
2023-01-13T09:57:10.823Z,13140.00
2023-01-13T10:02:18.094Z,10152.00
2023-01-13T10:07:25.218Z,16272.00
2023-01-13T10:12:32.465Z,18216.00
2023-01-13T10:17:39.694Z,19872.00
2023-01-13T10:22:46.865Z,19584.00
2023-01-13T10:27:54.094Z,18072.00
2023-01-13T10:33:01.377Z,20808.00
2023-01-13T10:38:08.599Z,17172.00
2023-01-13T10:43:15.852Z,13680.00
2023-01-13T10:48:23.129Z,14544.00
2023-01-13T10:53:30.311Z,10584.00
2023-01-13T10:58:37.532Z,14580.00
2023-01-13T11:03:44.761Z,10512.00
2023-01-13T11:08:51.914Z,15480.00
2023-01-13T11:13:59.142Z,16164.00
2023-01-13T11:19:06.304Z,19728.00
2023-01-13T11:24:13.538Z,17532.00
2023-01-13T11:29:20.725Z,15444.00
2023-01-13T11:34:27.975Z,17460.00
2023-01-13T11:39:35.209Z,19944.00
2023-01-13T11:44:42.455Z,18144.00
2023-01-13T11:49:49.662Z,15336.00
2023-01-13T11:54:56.801Z,17460.00
2023-01-13T12:00:03.970Z,17208.00
2023-01-13T12:05:11.196Z,13500.00
2023-01-13T12:10:18.447Z,14724.00
2023-01-13T12:15:25.528Z,13716.00
2023-01-13T12:20:32.998Z,13788.00
2023-01-13T12:25:40.177Z,13248.00
2023-01-13T12:30:47.335Z,13860.00
2023-01-13T12:35:54.600Z,10836.00
2023-01-13T12:41:01.798Z,18216.00
2023-01-13T12:46:09.033Z,16812.00
2023-01-13T12:51:18.249Z,18288.00
2023-01-13T12:56:23.415Z,12564.00
2023-01-13T13:01:30.719Z,17532.00
2023-01-13T13:06:37.780Z,17964.00
2023-01-13T13:11:44.952Z,16380.00
2023-01-13T13:16:52.347Z,18360.00
2023-01-13T13:21:59.559Z,9540.00
2023-01-13T13:27:06.738Z,6552.00
2023-01-13T13:32:13.960Z,12420.00
2023-01-13T13:37:21.198Z,6660.00
2023-01-13T13:42:28.363Z,5220.00
2023-01-13T13:47:35.530Z,8784.00
2023-01-13T13:52:42.779Z,0.00
2023-01-13T13:57:50.286Z,-36.00
2023-01-13T14:02:57.504Z,0.00
2023-01-13T14:08:04.725Z,0.00
2023-01-13T14:13:11.893Z,0.00
2023-01-13T14:18:19.041Z,-36.00
2023-01-13T14:23:26.259Z,72.00
2023-01-13T14:28:33.343Z,-36.00
2023-01-13T14:33:40.498Z,-36.00
2023-01-13T14:38:47.737Z,72.00
2023-01-13T14:43:54.939Z,-36.00
2023-01-13T14:49:02.108Z,-36.00
2023-01-13T14:54:09.286Z,0.00
2023-01-13T14:59:16.392Z,-72.00
2023-01-13T15:04:23.661Z,-36.00
2023-01-13T15:09:30.897Z,-36.00
2023-01-13T15:14:38.088Z,-36.00
2023-01-13T15:19:45.283Z,-36.00
2023-01-13T15:24:52.468Z,-72.00
2023-01-13T15:29:59.700Z,-72.00
2023-01-13T15:35:06.935Z,-72.00
2023-01-13T15:40:14.131Z,-72.00
2023-01-13T15:45:21.374Z,-72.00
2023-01-13T15:50:28.620Z,-72.00
2023-01-13T15:55:35.806Z,-72.00
2023-01-13T16:00:43.074Z,-108.00
2023-01-13T16:05:50.231Z,-72.00
2023-01-13T16:10:57.507Z,-72.00
2023-01-13T16:16:04.679Z,-72.00
2023-01-13T16:21:11.923Z,-72.00
2023-01-13T16:26:19.115Z,-108.00
2023-01-13T16:31:26.352Z,-72.00
2023-01-13T16:36:33.631Z,-72.00
2023-01-13T16:41:40.891Z,7596.00
2023-01-13T16:46:48.652Z,7848.00
2023-01-13T16:51:55.859Z,7668.00
2023-01-13T16:57:03.129Z,7668.00
2023-01-13T17:02:10.276Z,7632.00
2023-01-13T17:07:17.805Z,7668.00
2023-01-13T17:12:25.281Z,7596.00
2023-01-13T17:17:32.588Z,7632.00
2023-01-13T17:22:39.824Z,7632.00
2023-01-13T17:27:47.050Z,7560.00
2023-01-13T17:32:54.177Z,7236.00
2023-01-13T17:38:01.721Z,7308.00
2023-01-13T17:43:09.169Z,7164.00
2023-01-13T17:48:16.392Z,7164.00
2023-01-13T17:53:23.597Z,7164.00
2023-01-13T17:58:31.076Z,7200.00
2023-01-13T18:03:38.385Z,7200.00
2023-01-13T18:08:45.797Z,7236.00
2023-01-13T18:13:53.092Z,7200.00
2023-01-13T18:19:00.273Z,7128.00
2023-01-13T18:24:07.781Z,7200.00
2023-01-13T18:29:15.188Z,7128.00
2023-01-13T18:34:22.400Z,7344.00
2023-01-13T18:39:29.661Z,7272.00
2023-01-13T18:44:37.675Z,6984.00
2023-01-13T18:49:44.830Z,6876.00
2023-01-13T18:54:52.345Z,6912.00
2023-01-13T18:59:59.974Z,7308.00
2023-01-13T19:05:07.311Z,7200.00
2023-01-13T19:10:14.563Z,7344.00
2023-01-13T19:15:21.799Z,7344.00
2023-01-13T19:20:28.990Z,7380.00
2023-01-13T19:25:36.277Z,7380.00
2023-01-13T19:30:43.828Z,7452.00
2023-01-13T19:35:51.431Z,7236.00
2023-01-13T19:40:58.922Z,7416.00
2023-01-13T19:46:08.098Z,7452.00
2023-01-13T19:51:15.265Z,7416.00
2023-01-13T19:56:22.802Z,7416.00
2023-01-13T20:01:30.673Z,7416.00
2023-01-13T20:06:38.021Z,7272.00
2023-01-13T20:11:45.453Z,7308.00
2023-01-13T20:16:52.918Z,7524.00
2023-01-13T20:22:01.479Z,7488.00
2023-01-13T20:27:08.855Z,7488.00
2023-01-13T20:32:16.231Z,7488.00
2023-01-13T20:37:23.548Z,7560.00
2023-01-13T20:42:31.018Z,7596.00
2023-01-13T20:47:38.656Z,7524.00
2023-01-13T20:52:46.160Z,7344.00
2023-01-13T20:57:54.673Z,7272.00
2023-01-13T21:03:01.973Z,7200.00
2023-01-13T21:08:09.140Z,7380.00
2023-01-13T21:13:16.303Z,7416.00
2023-01-13T21:18:23.643Z,7308.00
2023-01-13T21:23:30.821Z,7488.00
2023-01-13T21:28:38.029Z,7344.00
2023-01-13T21:33:45.429Z,7308.00
2023-01-13T21:38:52.637Z,6876.00
2023-01-13T21:43:59.889Z,6912.00
2023-01-13T21:49:07.136Z,6696.00
2023-01-13T21:54:14.342Z,6840.00
2023-01-13T21:59:21.554Z,7020.00
2023-01-13T22:04:28.779Z,6984.00
2023-01-13T22:09:35.982Z,6732.00
2023-01-13T22:14:43.179Z,6876.00
2023-01-13T22:19:50.394Z,6768.00
2023-01-13T22:24:57.642Z,6768.00
2023-01-13T22:30:04.866Z,6660.00
2023-01-13T22:35:12.084Z,6732.00
2023-01-13T22:40:19.308Z,6768.00
2023-01-13T22:45:26.543Z,6768.00
2023-01-13T22:50:34.451Z,6804.00
2023-01-13T22:55:41.664Z,6768.00
2023-01-13T23:00:48.827Z,6768.00
2023-01-13T23:05:56.085Z,6912.00
2023-01-13T23:11:03.257Z,6948.00
2023-01-13T23:16:10.502Z,6912.00
2023-01-13T23:21:17.679Z,6804.00
2023-01-13T23:26:24.877Z,6876.00
2023-01-13T23:31:32.106Z,1044.00
2023-01-13T23:36:39.377Z,-108.00
2023-01-13T23:41:46.564Z,-108.00
2023-01-13T23:46:53.798Z,-108.00
2023-01-13T23:52:01.024Z,-108.00
2023-01-13T23:57:08.201Z,-108.00
